sensor_id;sensor_type;location;lat;lon;timestamp;temperature;humidity
3996;DHT22;2012;49.794;9.722;2022-11-24T00:00:11;7.30;99.90
3996;DHT22;2012;49.794;9.722;2022-11-24T00:02:39;7.30;99.90
3996;DHT22;2012;49.794;9.722;2022-11-24T00:05:06;7.20;99.90
3996;DHT22;2012;49.794;9.722;2022-11-24T00:07:33;7.30;99.90
3996;DHT22;2012;49.794;9.722;2022-11-24T00:10:00;7.30;99.90
3996;DHT22;2012;49.794;9.722;2022-11-24T00:12:26;7.30;99.90
3996;DHT22;2012;49.794;9.722;2022-11-24T00:14:53;7.40;99.90
3996;DHT22;2012;49.794;9.722;2022-11-24T00:17:19;7.40;99.90
3996;DHT22;2012;49.794;9.722;2022-11-24T00:19:46;7.30;99.90
3996;DHT22;2012;49.794;9.722;2022-11-24T00:22:13;7.30;99.90
3996;DHT22;2012;49.794;9.722;2022-11-24T00:24:39;7.30;99.90
3996;DHT22;2012;49.794;9.722;2022-11-24T00:27:06;7.30;99.90
3996;DHT22;2012;49.794;9.722;2022-11-24T00:29:33;7.30;99.90
3996;DHT22;2012;49.794;9.722;2022-11-24T00:32:00;7.20;99.90
3996;DHT22;2012;49.794;9.722;2022-11-24T00:34:31;7.30;99.90
3996;DHT22;2012;49.794;9.722;2022-11-24T00:36:59;7.30;99.90
3996;DHT22;2012;49.794;9.722;2022-11-24T00:39:26;7.30;99.90
3996;DHT22;2012;49.794;9.722;2022-11-24T00:41:52;7.30;99.90
3996;DHT22;2012;49.794;9.722;2022-11-24T00:44:19;7.30;99.90
3996;DHT22;2012;49.794;9.722;2022-11-24T00:46:45;7.30;99.90
3996;DHT22;2012;49.794;9.722;2022-11-24T00:49:12;7.30;99.90
3996;DHT22;2012;49.794;9.722;2022-11-24T00:51:39;7.30;99.90
3996;DHT22;2012;49.794;9.722;2022-11-24T00:54:06;7.20;99.90
3996;DHT22;2012;49.794;9.722;2022-11-24T00:56:33;7.10;99.90
3996;DHT22;2012;49.794;9.722;2022-11-24T00:59:00;7.00;99.90
3996;DHT22;2012;49.794;9.722;2022-11-24T01:01:27;7.10;99.90
3996;DHT22;2012;49.794;9.722;2022-11-24T01:03:57;7.10;99.90
3996;DHT22;2012;49.794;9.722;2022-11-24T01:06:24;7.10;99.90
3996;DHT22;2012;49.794;9.722;2022-11-24T01:08:51;7.10;99.90
3996;DHT22;2012;49.794;9.722;2022-11-24T01:11:30;7.00;99.90
3996;DHT22;2012;49.794;9.722;2022-11-24T01:14:17;6.90;99.90
3996;DHT22;2012;49.794;9.722;2022-11-24T01:16:44;6.90;99.90
3996;DHT22;2012;49.794;9.722;2022-11-24T01:19:11;6.80;99.90
3996;DHT22;2012;49.794;9.722;2022-11-24T01:21:37;6.90;99.90
3996;DHT22;2012;49.794;9.722;2022-11-24T01:24:04;7.00;99.90
3996;DHT22;2012;49.794;9.722;2022-11-24T01:26:31;7.00;99.90
3996;DHT22;2012;49.794;9.722;2022-11-24T01:28:58;7.10;99.90
3996;DHT22;2012;49.794;9.722;2022-11-24T01:31:25;7.00;99.90
3996;DHT22;2012;49.794;9.722;2022-11-24T01:33:52;7.00;99.90
3996;DHT22;2012;49.794;9.722;2022-11-24T01:36:19;7.10;99.90
3996;DHT22;2012;49.794;9.722;2022-11-24T01:38:46;7.10;99.90
3996;DHT22;2012;49.794;9.722;2022-11-24T01:41:18;7.10;99.90
3996;DHT22;2012;49.794;9.722;2022-11-24T01:43:46;7.20;99.90
3996;DHT22;2012;49.794;9.722;2022-11-24T01:46:18;7.30;99.90
3996;DHT22;2012;49.794;9.722;2022-11-24T01:51:22;7.30;99.90
3996;DHT22;2012;49.794;9.722;2022-11-24T01:54:00;7.30;99.90
3996;DHT22;2012;49.794;9.722;2022-11-24T01:56:28;7.30;99.90
3996;DHT22;2012;49.794;9.722;2022-11-24T01:58:58;7.40;99.90
3996;DHT22;2012;49.794;9.722;2022-11-24T02:01:26;7.40;99.90
3996;DHT22;2012;49.794;9.722;2022-11-24T02:03:55;7.40;99.90
3996;DHT22;2012;49.794;9.722;2022-11-24T02:06:25;7.40;99.90
3996;DHT22;2012;49.794;9.722;2022-11-24T02:11:58;7.40;99.90
3996;DHT22;2012;49.794;9.722;2022-11-24T02:14:25;7.40;99.90
3996;DHT22;2012;49.794;9.722;2022-11-24T02:16:52;7.40;99.90
3996;DHT22;2012;49.794;9.722;2022-11-24T02:22:11;7.50;99.90
3996;DHT22;2012;49.794;9.722;2022-11-24T02:24:50;7.50;99.90
3996;DHT22;2012;49.794;9.722;2022-11-24T02:27:18;7.50;99.90
3996;DHT22;2012;49.794;9.722;2022-11-24T02:29:45;7.50;99.90
3996;DHT22;2012;49.794;9.722;2022-11-24T02:32:14;7.60;99.90
3996;DHT22;2012;49.794;9.722;2022-11-24T02:34:41;7.60;99.90
3996;DHT22;2012;49.794;9.722;2022-11-24T02:40:49;7.60;99.90
3996;DHT22;2012;49.794;9.722;2022-11-24T02:43:19;7.60;99.90
3996;DHT22;2012;49.794;9.722;2022-11-24T02:45:47;7.60;99.90
3996;DHT22;2012;49.794;9.722;2022-11-24T02:48:15;7.60;99.90
3996;DHT22;2012;49.794;9.722;2022-11-24T02:50:42;7.60;99.90
3996;DHT22;2012;49.794;9.722;2022-11-24T02:53:08;7.60;99.90
3996;DHT22;2012;49.794;9.722;2022-11-24T02:55:35;7.60;99.90
3996;DHT22;2012;49.794;9.722;2022-11-24T02:58:02;7.60;99.90
3996;DHT22;2012;49.794;9.722;2022-11-24T03:00:29;7.70;99.90
3996;DHT22;2012;49.794;9.722;2022-11-24T03:02:56;7.70;99.90
3996;DHT22;2012;49.794;9.722;2022-11-24T03:05:23;7.70;99.90
3996;DHT22;2012;49.794;9.722;2022-11-24T03:07:49;7.70;99.90
3996;DHT22;2012;49.794;9.722;2022-11-24T03:10:16;7.60;99.90
3996;DHT22;2012;49.794;9.722;2022-11-24T03:12:43;7.60;99.90
3996;DHT22;2012;49.794;9.722;2022-11-24T03:15:10;7.70;99.90
3996;DHT22;2012;49.794;9.722;2022-11-24T03:17:36;7.60;99.90
3996;DHT22;2012;49.794;9.722;2022-11-24T03:20:03;7.60;99.90
3996;DHT22;2012;49.794;9.722;2022-11-24T03:22:31;7.50;99.90
3996;DHT22;2012;49.794;9.722;2022-11-24T03:24:57;7.50;99.90
3996;DHT22;2012;49.794;9.722;2022-11-24T03:27:24;7.40;99.90
3996;DHT22;2012;49.794;9.722;2022-11-24T03:29:51;7.30;99.90
3996;DHT22;2012;49.794;9.722;2022-11-24T03:32:18;7.30;99.90
3996;DHT22;2012;49.794;9.722;2022-11-24T03:34:45;7.30;99.90
3996;DHT22;2012;49.794;9.722;2022-11-24T03:37:12;7.30;99.90
3996;DHT22;2012;49.794;9.722;2022-11-24T03:39:38;7.20;99.90
3996;DHT22;2012;49.794;9.722;2022-11-24T03:42:05;7.20;99.90
3996;DHT22;2012;49.794;9.722;2022-11-24T03:44:32;7.20;99.90
3996;DHT22;2012;49.794;9.722;2022-11-24T03:46:59;7.10;99.90
3996;DHT22;2012;49.794;9.722;2022-11-24T03:49:26;7.00;99.90
3996;DHT22;2012;49.794;9.722;2022-11-24T03:51:53;7.00;99.90
3996;DHT22;2012;49.794;9.722;2022-11-24T03:54:19;7.00;99.90
3996;DHT22;2012;49.794;9.722;2022-11-24T03:56:46;6.90;99.90
3996;DHT22;2012;49.794;9.722;2022-11-24T03:59:13;6.80;99.90
3996;DHT22;2012;49.794;9.722;2022-11-24T04:01:40;6.90;99.90
3996;DHT22;2012;49.794;9.722;2022-11-24T04:04:09;6.90;99.90
3996;DHT22;2012;49.794;9.722;2022-11-24T04:06:36;6.80;99.90
3996;DHT22;2012;49.794;9.722;2022-11-24T04:09:03;6.80;99.90
3996;DHT22;2012;49.794;9.722;2022-11-24T04:11:30;6.80;99.90
3996;DHT22;2012;49.794;9.722;2022-11-24T04:14:15;6.70;99.90
3996;DHT22;2012;49.794;9.722;2022-11-24T04:16:44;6.60;99.90
3996;DHT22;2012;49.794;9.722;2022-11-24T04:19:10;6.60;99.90
3996;DHT22;2012;49.794;9.722;2022-11-24T04:21:37;6.60;99.90
3996;DHT22;2012;49.794;9.722;2022-11-24T04:24:04;6.60;99.90
3996;DHT22;2012;49.794;9.722;2022-11-24T04:26:31;6.60;99.90
3996;DHT22;2012;49.794;9.722;2022-11-24T04:28:58;6.60;99.90
3996;DHT22;2012;49.794;9.722;2022-11-24T04:31:25;6.70;99.90
3996;DHT22;2012;49.794;9.722;2022-11-24T04:33:51;6.60;99.90
3996;DHT22;2012;49.794;9.722;2022-11-24T04:36:18;6.70;99.90
3996;DHT22;2012;49.794;9.722;2022-11-24T04:38:45;6.70;99.90
3996;DHT22;2012;49.794;9.722;2022-11-24T04:41:31;6.70;99.90
3996;DHT22;2012;49.794;9.722;2022-11-24T04:43:58;6.80;99.90
3996;DHT22;2012;49.794;9.722;2022-11-24T04:46:25;6.80;99.90
3996;DHT22;2012;49.794;9.722;2022-11-24T04:48:51;6.70;99.90
3996;DHT22;2012;49.794;9.722;2022-11-24T04:51:18;6.70;99.90
3996;DHT22;2012;49.794;9.722;2022-11-24T04:53:47;6.80;99.90
3996;DHT22;2012;49.794;9.722;2022-11-24T04:56:14;6.80;99.90
3996;DHT22;2012;49.794;9.722;2022-11-24T04:58:41;6.80;99.90
3996;DHT22;2012;49.794;9.722;2022-11-24T05:01:08;6.80;99.90
3996;DHT22;2012;49.794;9.722;2022-11-24T05:03:35;6.80;99.90
3996;DHT22;2012;49.794;9.722;2022-11-24T05:06:02;6.90;99.90
3996;DHT22;2012;49.794;9.722;2022-11-24T05:08:29;7.00;99.90
3996;DHT22;2012;49.794;9.722;2022-11-24T05:10:56;6.80;99.90
3996;DHT22;2012;49.794;9.722;2022-11-24T05:13:23;6.90;99.90
3996;DHT22;2012;49.794;9.722;2022-11-24T05:15:49;7.00;99.90
3996;DHT22;2012;49.794;9.722;2022-11-24T05:18:16;7.10;99.90
3996;DHT22;2012;49.794;9.722;2022-11-24T05:20:43;7.20;99.90
3996;DHT22;2012;49.794;9.722;2022-11-24T05:23:13;7.30;99.90
3996;DHT22;2012;49.794;9.722;2022-11-24T05:25:40;7.30;99.90
3996;DHT22;2012;49.794;9.722;2022-11-24T05:28:13;7.30;99.90
3996;DHT22;2012;49.794;9.722;2022-11-24T05:30:40;7.30;99.90
3996;DHT22;2012;49.794;9.722;2022-11-24T05:33:12;7.30;99.90
3996;DHT22;2012;49.794;9.722;2022-11-24T05:35:45;7.30;99.90
3996;DHT22;2012;49.794;9.722;2022-11-24T05:38:12;7.30;99.90
3996;DHT22;2012;49.794;9.722;2022-11-24T05:40:39;7.40;99.90
3996;DHT22;2012;49.794;9.722;2022-11-24T05:43:16;7.40;99.90
3996;DHT22;2012;49.794;9.722;2022-11-24T05:45:43;7.40;99.90
3996;DHT22;2012;49.794;9.722;2022-11-24T05:48:13;7.50;99.90
3996;DHT22;2012;49.794;9.722;2022-11-24T05:50:40;7.50;99.90
3996;DHT22;2012;49.794;9.722;2022-11-24T05:53:09;7.40;99.90
3996;DHT22;2012;49.794;9.722;2022-11-24T05:55:37;7.50;99.90
3996;DHT22;2012;49.794;9.722;2022-11-24T05:58:07;7.50;99.90
3996;DHT22;2012;49.794;9.722;2022-11-24T06:00:34;7.50;99.90
3996;DHT22;2012;49.794;9.722;2022-11-24T06:03:01;7.50;99.90
3996;DHT22;2012;49.794;9.722;2022-11-24T06:05:28;7.50;99.90
3996;DHT22;2012;49.794;9.722;2022-11-24T06:07:55;7.50;99.90
3996;DHT22;2012;49.794;9.722;2022-11-24T06:10:22;7.50;99.90
3996;DHT22;2012;49.794;9.722;2022-11-24T06:12:51;8.20;99.90
3996;DHT22;2012;49.794;9.722;2022-11-24T06:15:18;8.30;99.90
3996;DHT22;2012;49.794;9.722;2022-11-24T06:17:52;8.20;99.90
3996;DHT22;2012;49.794;9.722;2022-11-24T06:20:20;7.80;99.90
3996;DHT22;2012;49.794;9.722;2022-11-24T06:22:47;7.90;99.90
3996;DHT22;2012;49.794;9.722;2022-11-24T06:25:14;7.80;99.90
3996;DHT22;2012;49.794;9.722;2022-11-24T06:27:42;7.70;99.90
3996;DHT22;2012;49.794;9.722;2022-11-24T06:30:09;7.70;99.90
3996;DHT22;2012;49.794;9.722;2022-11-24T06:32:36;7.80;99.90
3996;DHT22;2012;49.794;9.722;2022-11-24T06:35:04;7.70;99.90
3996;DHT22;2012;49.794;9.722;2022-11-24T06:37:35;8.10;99.90
3996;DHT22;2012;49.794;9.722;2022-11-24T06:40:02;8.50;99.90
3996;DHT22;2012;49.794;9.722;2022-11-24T06:42:29;8.10;99.90
3996;DHT22;2012;49.794;9.722;2022-11-24T06:44:55;7.80;99.90
3996;DHT22;2012;49.794;9.722;2022-11-24T06:47:22;7.60;99.90
3996;DHT22;2012;49.794;9.722;2022-11-24T06:49:49;7.50;99.90
3996;DHT22;2012;49.794;9.722;2022-11-24T06:52:16;7.50;99.90
3996;DHT22;2012;49.794;9.722;2022-11-24T06:54:42;7.60;99.90
3996;DHT22;2012;49.794;9.722;2022-11-24T06:57:09;7.50;99.90
3996;DHT22;2012;49.794;9.722;2022-11-24T06:59:38;7.60;99.90
3996;DHT22;2012;49.794;9.722;2022-11-24T07:02:05;7.60;99.90
3996;DHT22;2012;49.794;9.722;2022-11-24T07:04:33;7.60;99.90
3996;DHT22;2012;49.794;9.722;2022-11-24T07:07:01;7.60;99.90
3996;DHT22;2012;49.794;9.722;2022-11-24T07:09:28;7.60;99.90
3996;DHT22;2012;49.794;9.722;2022-11-24T07:11:55;7.60;99.90
3996;DHT22;2012;49.794;9.722;2022-11-24T07:14:22;7.60;99.90
3996;DHT22;2012;49.794;9.722;2022-11-24T07:16:49;7.70;99.90
3996;DHT22;2012;49.794;9.722;2022-11-24T07:19:15;7.70;99.90
3996;DHT22;2012;49.794;9.722;2022-11-24T07:21:49;7.70;99.90
3996;DHT22;2012;49.794;9.722;2022-11-24T07:24:16;7.70;99.90
3996;DHT22;2012;49.794;9.722;2022-11-24T07:26:43;7.70;99.90
3996;DHT22;2012;49.794;9.722;2022-11-24T07:29:09;7.70;99.90
3996;DHT22;2012;49.794;9.722;2022-11-24T07:31:36;7.80;99.90
3996;DHT22;2012;49.794;9.722;2022-11-24T07:34:03;7.80;99.90
3996;DHT22;2012;49.794;9.722;2022-11-24T07:36:30;7.80;99.90
3996;DHT22;2012;49.794;9.722;2022-11-24T07:38:57;7.80;99.90
3996;DHT22;2012;49.794;9.722;2022-11-24T07:41:24;7.80;99.90
3996;DHT22;2012;49.794;9.722;2022-11-24T07:43:51;7.80;99.90
3996;DHT22;2012;49.794;9.722;2022-11-24T07:46:19;7.80;99.90
3996;DHT22;2012;49.794;9.722;2022-11-24T07:48:46;7.90;99.90
3996;DHT22;2012;49.794;9.722;2022-11-24T07:51:12;7.90;99.90
3996;DHT22;2012;49.794;9.722;2022-11-24T07:53:39;7.90;99.90
3996;DHT22;2012;49.794;9.722;2022-11-24T07:56:08;7.90;99.90
3996;DHT22;2012;49.794;9.722;2022-11-24T07:58:35;7.90;99.90
3996;DHT22;2012;49.794;9.722;2022-11-24T08:01:14;7.90;99.90
3996;DHT22;2012;49.794;9.722;2022-11-24T08:03:42;7.90;99.90
3996;DHT22;2012;49.794;9.722;2022-11-24T08:06:10;7.90;99.90
3996;DHT22;2012;49.794;9.722;2022-11-24T08:08:57;7.90;99.90
3996;DHT22;2012;49.794;9.722;2022-11-24T08:11:26;7.90;99.90
3996;DHT22;2012;49.794;9.722;2022-11-24T08:13:52;7.90;99.90
3996;DHT22;2012;49.794;9.722;2022-11-24T08:16:19;7.90;99.90
3996;DHT22;2012;49.794;9.722;2022-11-24T08:18:51;7.80;99.90
3996;DHT22;2012;49.794;9.722;2022-11-24T08:21:18;7.80;99.90
3996;DHT22;2012;49.794;9.722;2022-11-24T08:23:45;7.80;99.90
3996;DHT22;2012;49.794;9.722;2022-11-24T08:26:14;7.80;99.90
3996;DHT22;2012;49.794;9.722;2022-11-24T08:28:44;7.80;99.90
3996;DHT22;2012;49.794;9.722;2022-11-24T08:31:12;7.90;99.90
3996;DHT22;2012;49.794;9.722;2022-11-24T08:33:40;7.90;99.90
3996;DHT22;2012;49.794;9.722;2022-11-24T08:36:12;7.90;99.90
3996;DHT22;2012;49.794;9.722;2022-11-24T08:38:40;8.00;99.90
3996;DHT22;2012;49.794;9.722;2022-11-24T08:41:09;8.00;99.90
3996;DHT22;2012;49.794;9.722;2022-11-24T08:43:36;8.10;99.90
3996;DHT22;2012;49.794;9.722;2022-11-24T08:46:05;8.10;99.90
3996;DHT22;2012;49.794;9.722;2022-11-24T08:48:33;8.10;99.90
3996;DHT22;2012;49.794;9.722;2022-11-24T08:51:06;8.20;99.90
3996;DHT22;2012;49.794;9.722;2022-11-24T08:53:33;8.10;99.90
3996;DHT22;2012;49.794;9.722;2022-11-24T08:56:01;8.10;99.90
3996;DHT22;2012;49.794;9.722;2022-11-24T08:58:28;8.10;99.90
3996;DHT22;2012;49.794;9.722;2022-11-24T09:01:02;8.10;99.90
3996;DHT22;2012;49.794;9.722;2022-11-24T09:03:28;8.20;99.90
3996;DHT22;2012;49.794;9.722;2022-11-24T09:05:55;8.20;99.90
3996;DHT22;2012;49.794;9.722;2022-11-24T09:08:22;8.20;99.90
3996;DHT22;2012;49.794;9.722;2022-11-24T09:10:48;8.20;99.90
3996;DHT22;2012;49.794;9.722;2022-11-24T09:13:15;8.20;99.90
3996;DHT22;2012;49.794;9.722;2022-11-24T09:15:42;8.20;99.90
3996;DHT22;2012;49.794;9.722;2022-11-24T09:18:09;8.30;99.90
3996;DHT22;2012;49.794;9.722;2022-11-24T09:20:35;8.30;99.90
3996;DHT22;2012;49.794;9.722;2022-11-24T09:23:02;8.30;99.90
3996;DHT22;2012;49.794;9.722;2022-11-24T09:25:29;8.40;99.90
3996;DHT22;2012;49.794;9.722;2022-11-24T09:27:55;8.40;99.90
3996;DHT22;2012;49.794;9.722;2022-11-24T09:30:22;8.50;99.90
3996;DHT22;2012;49.794;9.722;2022-11-24T09:32:49;8.50;99.90
3996;DHT22;2012;49.794;9.722;2022-11-24T09:35:16;8.50;99.90
3996;DHT22;2012;49.794;9.722;2022-11-24T09:37:43;8.50;99.90
3996;DHT22;2012;49.794;9.722;2022-11-24T09:40:12;8.60;99.90
3996;DHT22;2012;49.794;9.722;2022-11-24T09:42:52;8.60;99.90
3996;DHT22;2012;49.794;9.722;2022-11-24T09:48:28;8.60;99.90
3996;DHT22;2012;49.794;9.722;2022-11-24T09:50:58;8.60;99.90
3996;DHT22;2012;49.794;9.722;2022-11-24T09:53:35;8.60;99.90
3996;DHT22;2012;49.794;9.722;2022-11-24T09:58:48;8.60;99.90
3996;DHT22;2012;49.794;9.722;2022-11-24T10:01:27;8.70;99.90
3996;DHT22;2012;49.794;9.722;2022-11-24T10:03:55;8.80;99.90
3996;DHT22;2012;49.794;9.722;2022-11-24T10:06:43;8.70;99.90
3996;DHT22;2012;49.794;9.722;2022-11-24T10:21:11;8.80;99.90
3996;DHT22;2012;49.794;9.722;2022-11-24T10:24:00;8.80;99.90
3996;DHT22;2012;49.794;9.722;2022-11-24T10:26:37;8.80;99.90
3996;DHT22;2012;49.794;9.722;2022-11-24T10:29:25;8.90;99.90
3996;DHT22;2012;49.794;9.722;2022-11-24T10:31:55;8.90;99.90
3996;DHT22;2012;49.794;9.722;2022-11-24T10:34:33;9.00;99.90
3996;DHT22;2012;49.794;9.722;2022-11-24T10:37:26;9.10;99.90
3996;DHT22;2012;49.794;9.722;2022-11-24T10:40:18;9.20;99.90
3996;DHT22;2012;49.794;9.722;2022-11-24T10:43:10;9.30;99.90
3996;DHT22;2012;49.794;9.722;2022-11-24T10:45:37;9.40;99.90
3996;DHT22;2012;49.794;9.722;2022-11-24T10:48:23;9.70;99.90
3996;DHT22;2012;49.794;9.722;2022-11-24T10:53:45;9.60;99.90
3996;DHT22;2012;49.794;9.722;2022-11-24T10:56:13;9.50;99.90
3996;DHT22;2012;49.794;9.722;2022-11-24T10:58:40;9.60;99.90
3996;DHT22;2012;49.794;9.722;2022-11-24T11:03:46;9.60;99.90
3996;DHT22;2012;49.794;9.722;2022-11-24T11:08:46;9.60;99.90
3996;DHT22;2012;49.794;9.722;2022-11-24T11:11:20;9.50;99.90
3996;DHT22;2012;49.794;9.722;2022-11-24T11:13:49;9.50;99.90
3996;DHT22;2012;49.794;9.722;2022-11-24T11:18:59;9.50;99.90
3996;DHT22;2012;49.794;9.722;2022-11-24T11:21:30;9.50;99.90
3996;DHT22;2012;49.794;9.722;2022-11-24T11:23:59;9.50;99.90
3996;DHT22;2012;49.794;9.722;2022-11-24T11:26:37;9.50;99.90
3996;DHT22;2012;49.794;9.722;2022-11-24T11:32:24;9.50;99.90
3996;DHT22;2012;49.794;9.722;2022-11-24T11:35:12;9.60;99.90
3996;DHT22;2012;49.794;9.722;2022-11-24T11:37:39;9.60;99.90
3996;DHT22;2012;49.794;9.722;2022-11-24T11:40:15;9.60;99.90
3996;DHT22;2012;49.794;9.722;2022-11-24T11:43:09;9.60;99.90
3996;DHT22;2012;49.794;9.722;2022-11-24T11:45:42;9.60;99.90
3996;DHT22;2012;49.794;9.722;2022-11-24T11:48:33;9.60;99.90
3996;DHT22;2012;49.794;9.722;2022-11-24T11:56:40;9.80;99.90
3996;DHT22;2012;49.794;9.722;2022-11-24T11:59:17;9.80;99.90
3996;DHT22;2012;49.794;9.722;2022-11-24T12:04:57;9.70;99.90
3996;DHT22;2012;49.794;9.722;2022-11-24T12:07:50;9.70;99.90
3996;DHT22;2012;49.794;9.722;2022-11-24T12:10:45;9.70;99.90
3996;DHT22;2012;49.794;9.722;2022-11-24T12:15:45;9.50;99.90
3996;DHT22;2012;49.794;9.722;2022-11-24T12:29:54;9.60;99.90
3996;DHT22;2012;49.794;9.722;2022-11-24T12:37:54;9.70;99.90
3996;DHT22;2012;49.794;9.722;2022-11-24T12:51:19;9.70;99.90
3996;DHT22;2012;49.794;9.722;2022-11-24T12:53:48;9.60;99.90
3996;DHT22;2012;49.794;9.722;2022-11-24T12:56:21;9.70;99.90
3996;DHT22;2012;49.794;9.722;2022-11-24T13:04:36;9.60;99.90
3996;DHT22;2012;49.794;9.722;2022-11-24T13:07:12;9.60;99.90
3996;DHT22;2012;49.794;9.722;2022-11-24T13:10:33;9.60;99.90
3996;DHT22;2012;49.794;9.722;2022-11-24T13:13:13;9.60;99.90
3996;DHT22;2012;49.794;9.722;2022-11-24T13:21:32;9.60;99.90
3996;DHT22;2012;49.794;9.722;2022-11-24T13:24:04;9.60;99.90
3996;DHT22;2012;49.794;9.722;2022-11-24T13:29:35;9.70;99.90
3996;DHT22;2012;49.794;9.722;2022-11-24T13:40:06;9.70;99.90
3996;DHT22;2012;49.794;9.722;2022-11-24T13:53:40;9.70;99.90
3996;DHT22;2012;49.794;9.722;2022-11-24T13:56:21;9.70;99.90
3996;DHT22;2012;49.794;9.722;2022-11-24T13:59:01;9.60;99.90
3996;DHT22;2012;49.794;9.722;2022-11-24T14:01:39;9.60;99.90
3996;DHT22;2012;49.794;9.722;2022-11-24T14:04:20;9.70;99.90
3996;DHT22;2012;49.794;9.722;2022-11-24T14:06:59;9.80;99.90
3996;DHT22;2012;49.794;9.722;2022-11-24T14:09:49;9.90;99.90
3996;DHT22;2012;49.794;9.722;2022-11-24T14:12:24;9.90;99.90
3996;DHT22;2012;49.794;9.722;2022-11-24T14:14:53;9.90;99.90
3996;DHT22;2012;49.794;9.722;2022-11-24T14:17:26;9.90;99.90
3996;DHT22;2012;49.794;9.722;2022-11-24T14:19:55;10.00;99.90
3996;DHT22;2012;49.794;9.722;2022-11-24T14:22:23;10.00;99.90
3996;DHT22;2012;49.794;9.722;2022-11-24T14:27:26;10.00;99.90
3996;DHT22;2012;49.794;9.722;2022-11-24T14:29:56;10.00;99.90
3996;DHT22;2012;49.794;9.722;2022-11-24T14:32:23;9.90;99.90
3996;DHT22;2012;49.794;9.722;2022-11-24T14:34:50;10.00;99.90
3996;DHT22;2012;49.794;9.722;2022-11-24T14:37:17;10.00;99.90
3996;DHT22;2012;49.794;9.722;2022-11-24T14:39:46;10.00;99.90
3996;DHT22;2012;49.794;9.722;2022-11-24T14:42:33;9.90;99.90
3996;DHT22;2012;49.794;9.722;2022-11-24T14:45:00;9.90;99.90
3996;DHT22;2012;49.794;9.722;2022-11-24T14:47:34;9.90;99.90
3996;DHT22;2012;49.794;9.722;2022-11-24T14:52:34;9.80;99.90
3996;DHT22;2012;49.794;9.722;2022-11-24T14:55:02;9.80;99.90
3996;DHT22;2012;49.794;9.722;2022-11-24T14:57:48;9.80;99.90
3996;DHT22;2012;49.794;9.722;2022-11-24T15:00:29;9.70;99.90
3996;DHT22;2012;49.794;9.722;2022-11-24T15:05:50;9.70;99.90
3996;DHT22;2012;49.794;9.722;2022-11-24T15:08:18;9.70;99.90
3996;DHT22;2012;49.794;9.722;2022-11-24T15:10:45;9.60;99.90
3996;DHT22;2012;49.794;9.722;2022-11-24T15:13:20;9.50;99.90
3996;DHT22;2012;49.794;9.722;2022-11-24T15:15:52;9.50;99.90
3996;DHT22;2012;49.794;9.722;2022-11-24T15:20:59;9.50;99.90
3996;DHT22;2012;49.794;9.722;2022-11-24T15:26:06;9.40;99.90
3996;DHT22;2012;49.794;9.722;2022-11-24T15:28:45;9.50;99.90
3996;DHT22;2012;49.794;9.722;2022-11-24T15:31:13;9.50;99.90
3996;DHT22;2012;49.794;9.722;2022-11-24T15:33:40;9.40;99.90
3996;DHT22;2012;49.794;9.722;2022-11-24T15:36:08;9.40;99.90
3996;DHT22;2012;49.794;9.722;2022-11-24T15:38:34;9.30;99.90
3996;DHT22;2012;49.794;9.722;2022-11-24T15:41:04;9.30;99.90
3996;DHT22;2012;49.794;9.722;2022-11-24T15:43:38;9.30;99.90
3996;DHT22;2012;49.794;9.722;2022-11-24T15:46:06;9.10;99.90
3996;DHT22;2012;49.794;9.722;2022-11-24T15:48:33;9.00;99.90
3996;DHT22;2012;49.794;9.722;2022-11-24T15:51:02;9.00;99.90
3996;DHT22;2012;49.794;9.722;2022-11-24T15:53:35;8.90;99.90
3996;DHT22;2012;49.794;9.722;2022-11-24T15:56:06;9.10;99.90
3996;DHT22;2012;49.794;9.722;2022-11-24T15:58:33;9.00;99.90
3996;DHT22;2012;49.794;9.722;2022-11-24T16:01:00;9.10;99.90
3996;DHT22;2012;49.794;9.722;2022-11-24T16:03:26;9.20;99.90
3996;DHT22;2012;49.794;9.722;2022-11-24T16:06:18;9.20;99.90
3996;DHT22;2012;49.794;9.722;2022-11-24T16:08:52;9.20;99.90
3996;DHT22;2012;49.794;9.722;2022-11-24T16:11:19;9.10;99.90
3996;DHT22;2012;49.794;9.722;2022-11-24T16:13:46;8.90;99.90
3996;DHT22;2012;49.794;9.722;2022-11-24T16:16:19;8.90;99.90
3996;DHT22;2012;49.794;9.722;2022-11-24T16:18:46;9.00;99.90
3996;DHT22;2012;49.794;9.722;2022-11-24T16:21:13;8.90;99.90
3996;DHT22;2012;49.794;9.722;2022-11-24T16:23:40;8.90;99.90
3996;DHT22;2012;49.794;9.722;2022-11-24T16:26:06;8.70;99.90
3996;DHT22;2012;49.794;9.722;2022-11-24T16:28:33;8.60;99.90
3996;DHT22;2012;49.794;9.722;2022-11-24T16:31:00;8.50;99.90
3996;DHT22;2012;49.794;9.722;2022-11-24T16:33:30;8.40;99.90
3996;DHT22;2012;49.794;9.722;2022-11-24T16:35:56;8.30;99.90
3996;DHT22;2012;49.794;9.722;2022-11-24T16:38:23;8.30;99.90
3996;DHT22;2012;49.794;9.722;2022-11-24T16:40:52;8.30;99.90
3996;DHT22;2012;49.794;9.722;2022-11-24T16:43:19;8.20;99.90
3996;DHT22;2012;49.794;9.722;2022-11-24T16:45:59;8.10;99.90
3996;DHT22;2012;49.794;9.722;2022-11-24T16:48:28;8.20;99.90
3996;DHT22;2012;49.794;9.722;2022-11-24T16:51:04;8.20;99.90
3996;DHT22;2012;49.794;9.722;2022-11-24T16:53:31;8.10;99.90
3996;DHT22;2012;49.794;9.722;2022-11-24T16:55:58;8.00;99.90
3996;DHT22;2012;49.794;9.722;2022-11-24T16:58:25;7.90;99.90
3996;DHT22;2012;49.794;9.722;2022-11-24T17:00:51;7.90;99.90
3996;DHT22;2012;49.794;9.722;2022-11-24T17:03:18;7.70;99.90
3996;DHT22;2012;49.794;9.722;2022-11-24T17:05:58;7.60;99.90
3996;DHT22;2012;49.794;9.722;2022-11-24T17:08:25;7.50;99.90
3996;DHT22;2012;49.794;9.722;2022-11-24T17:10:51;7.40;99.90
3996;DHT22;2012;49.794;9.722;2022-11-24T17:13:18;7.50;99.90
3996;DHT22;2012;49.794;9.722;2022-11-24T17:15:45;7.50;99.90
3996;DHT22;2012;49.794;9.722;2022-11-24T17:18:19;7.30;99.90
3996;DHT22;2012;49.794;9.722;2022-11-24T17:20:51;7.20;99.90
3996;DHT22;2012;49.794;9.722;2022-11-24T17:23:17;7.10;99.90
3996;DHT22;2012;49.794;9.722;2022-11-24T17:25:45;7.10;99.90
3996;DHT22;2012;49.794;9.722;2022-11-24T17:28:13;7.10;99.90
3996;DHT22;2012;49.794;9.722;2022-11-24T17:30:41;7.00;99.90
3996;DHT22;2012;49.794;9.722;2022-11-24T17:33:08;7.00;99.90
3996;DHT22;2012;49.794;9.722;2022-11-24T17:35:34;7.00;99.90
3996;DHT22;2012;49.794;9.722;2022-11-24T17:38:01;7.00;99.90
3996;DHT22;2012;49.794;9.722;2022-11-24T17:40:28;7.00;99.90
3996;DHT22;2012;49.794;9.722;2022-11-24T17:42:59;6.90;99.90
3996;DHT22;2012;49.794;9.722;2022-11-24T17:45:27;6.80;99.90
3996;DHT22;2012;49.794;9.722;2022-11-24T17:47:55;6.80;99.90
3996;DHT22;2012;49.794;9.722;2022-11-24T17:50:22;6.80;99.90
3996;DHT22;2012;49.794;9.722;2022-11-24T17:52:52;6.70;99.90
3996;DHT22;2012;49.794;9.722;2022-11-24T17:55:19;6.60;99.90
3996;DHT22;2012;49.794;9.722;2022-11-24T17:57:46;6.50;99.90
3996;DHT22;2012;49.794;9.722;2022-11-24T18:00:13;6.40;99.90
3996;DHT22;2012;49.794;9.722;2022-11-24T18:02:40;6.40;99.90
3996;DHT22;2012;49.794;9.722;2022-11-24T18:05:07;6.40;99.90
3996;DHT22;2012;49.794;9.722;2022-11-24T18:07:34;6.30;99.90
3996;DHT22;2012;49.794;9.722;2022-11-24T18:10:02;6.20;99.90
3996;DHT22;2012;49.794;9.722;2022-11-24T18:12:29;6.20;99.90
3996;DHT22;2012;49.794;9.722;2022-11-24T18:14:55;6.20;99.90
3996;DHT22;2012;49.794;9.722;2022-11-24T18:17:22;6.30;99.90
3996;DHT22;2012;49.794;9.722;2022-11-24T18:19:49;6.40;99.90
3996;DHT22;2012;49.794;9.722;2022-11-24T18:22:15;6.20;99.90
3996;DHT22;2012;49.794;9.722;2022-11-24T18:24:44;6.20;99.90
3996;DHT22;2012;49.794;9.722;2022-11-24T18:27:11;6.20;99.90
3996;DHT22;2012;49.794;9.722;2022-11-24T18:29:38;6.10;99.90
3996;DHT22;2012;49.794;9.722;2022-11-24T18:32:04;6.10;99.90
3996;DHT22;2012;49.794;9.722;2022-11-24T18:34:31;5.80;99.90
3996;DHT22;2012;49.794;9.722;2022-11-24T18:36:58;5.80;99.90
3996;DHT22;2012;49.794;9.722;2022-11-24T18:39:25;5.70;99.90
3996;DHT22;2012;49.794;9.722;2022-11-24T18:41:53;5.60;99.90